createdAt,value
2018-12-15T00:03:23.211Z,66.53
2018-12-15T00:07:30.149Z,65.00
2018-12-15T00:11:35.125Z,66.50
2018-12-15T00:15:40.015Z,67.00
2018-12-15T00:19:46.162Z,68.13
2018-12-15T00:23:51.071Z,65.30
2018-12-15T00:27:56.073Z,73.60
2018-12-15T00:32:01.000Z,65.17
2018-12-15T00:40:23.070Z,65.70
2018-12-15T00:44:28.328Z,62.13
2018-12-15T00:48:33.232Z,84.23
2018-12-15T00:52:39.670Z,80.73
2018-12-15T00:56:44.614Z,62.27
2018-12-15T01:00:49.654Z,75.50
2018-12-15T01:04:54.606Z,68.13
2018-12-15T01:09:00.922Z,71.83
2018-12-15T01:13:07.876Z,67.20
2018-12-15T01:17:12.837Z,69.77
2018-12-15T01:21:17.717Z,75.17
2018-12-15T01:25:23.557Z,75.53
2018-12-15T01:29:28.434Z,64.90
2018-12-15T01:33:33.316Z,68.70
2018-12-15T01:37:38.896Z,59.77
2018-12-15T01:41:44.115Z,63.53
2018-12-15T01:45:49.007Z,59.97
2018-12-15T01:49:54.006Z,66.77
2018-12-15T01:54:02.296Z,62.37
2018-12-15T01:58:07.716Z,69.03
2018-12-15T02:02:13.616Z,62.23
2018-12-15T02:06:19.294Z,60.93
2018-12-15T02:10:24.183Z,67.40
2018-12-15T02:14:29.639Z,54.90
2018-12-15T02:18:34.512Z,54.50
2018-12-15T02:22:39.473Z,61.40
2018-12-15T02:26:44.355Z,41.17
2018-12-15T02:30:49.842Z,66.93
2018-12-15T02:34:54.736Z,62.17
2018-12-15T02:39:01.100Z,68.63
2018-12-15T02:43:08.076Z,61.83
2018-12-15T02:47:13.651Z,58.33
2018-12-15T02:51:18.736Z,64.40
2018-12-15T02:55:23.759Z,60.23
2018-12-15T02:59:28.790Z,54.67
2018-12-15T03:03:35.702Z,61.57
2018-12-15T03:07:40.824Z,51.00
2018-12-15T03:11:45.756Z,56.40
2018-12-15T03:15:50.766Z,54.13
2018-12-15T03:20:02.404Z,55.33
2018-12-15T03:24:07.886Z,54.73
2018-12-15T03:28:12.793Z,56.43
2018-12-15T03:32:17.664Z,31.00
2018-12-15T03:36:23.864Z,52.10
2018-12-15T03:40:29.406Z,49.90
2018-12-15T03:44:34.355Z,50.07
2018-12-15T03:48:39.310Z,43.80
2018-12-15T03:52:45.837Z,44.27
2018-12-15T03:56:51.738Z,45.87
2018-12-15T04:06:19.715Z,54.07
2018-12-15T04:10:25.119Z,47.93
2018-12-15T04:18:39.726Z,52.60
2018-12-15T04:22:45.295Z,42.60
2018-12-15T04:26:50.262Z,43.57
2018-12-15T04:30:57.531Z,54.43
2018-12-15T04:35:04.206Z,47.67
2018-12-15T04:39:09.208Z,52.10
2018-12-15T04:43:18.186Z,49.27
2018-12-15T04:47:40.796Z,51.10
2018-12-15T04:51:45.998Z,47.67
2018-12-15T04:55:55.776Z,49.07
2018-12-15T05:00:02.265Z,47.87
2018-12-15T05:04:09.343Z,48.57
2018-12-15T05:08:22.922Z,50.40
2018-12-15T05:12:29.824Z,53.37
2018-12-15T05:16:39.234Z,48.20
2018-12-15T05:21:10.908Z,48.17
2018-12-15T05:25:16.062Z,43.03
2018-12-15T05:33:29.273Z,47.97
2018-12-15T05:37:35.046Z,45.13
2018-12-15T05:41:40.632Z,55.57
2018-12-15T05:45:48.079Z,55.43
2018-12-15T05:49:55.125Z,52.77
2018-12-15T05:59:25.158Z,47.90
2018-12-15T06:03:31.212Z,45.47
2018-12-15T06:11:46.083Z,43.37
2018-12-15T06:15:54.842Z,36.30
2018-12-15T06:20:07.068Z,49.60
2018-12-15T06:24:12.198Z,51.63
2018-12-15T06:28:20.466Z,42.93
2018-12-15T06:32:26.078Z,42.20
2018-12-15T06:36:32.045Z,38.30
2018-12-15T06:40:42.613Z,50.87
2018-12-15T06:44:48.587Z,21.27
2018-12-15T06:49:03.462Z,54.40
2018-12-15T06:53:09.768Z,54.60
2018-12-15T06:57:14.882Z,44.33
2018-12-15T07:01:23.449Z,54.27
2018-12-15T07:05:30.564Z,54.30
2018-12-15T07:13:48.191Z,52.53
2018-12-15T07:17:54.316Z,49.37
2018-12-15T07:22:03.708Z,55.97
2018-12-15T07:26:10.628Z,55.33
2018-12-15T07:30:20.525Z,44.83
2018-12-15T07:34:26.097Z,56.43
2018-12-15T07:38:32.553Z,45.10
2018-12-15T07:42:46.269Z,52.23
2018-12-15T07:46:52.735Z,50.97
2018-12-15T07:51:03.758Z,38.33
2018-12-15T07:55:10.681Z,56.47
2018-12-15T07:59:24.631Z,60.20
2018-12-15T08:03:30.546Z,51.73
2018-12-15T08:17:11.705Z,56.30
2018-12-15T08:21:18.462Z,52.00
2018-12-15T08:30:48.583Z,50.47
2018-12-15T08:34:56.746Z,57.60
2018-12-15T08:39:02.445Z,50.87
2018-12-15T08:43:09.888Z,50.50
2018-12-15T08:47:23.201Z,48.33
2018-12-15T08:51:30.573Z,62.90
2018-12-15T08:55:44.211Z,58.57
2018-12-15T09:14:38.711Z,56.37
2018-12-15T09:18:44.619Z,41.60
2018-12-15T09:22:49.824Z,40.77
2018-12-15T09:26:58.900Z,38.70
2018-12-15T09:31:18.493Z,41.73
2018-12-15T09:35:32.018Z,45.07
2018-12-15T09:39:37.320Z,45.17
2018-12-15T09:43:47.342Z,48.07
2018-12-15T09:47:54.724Z,42.40
2018-12-15T09:56:31.896Z,44.30
2018-12-15T10:00:39.564Z,33.63
2018-12-15T10:04:48.197Z,39.27
2018-12-15T10:08:54.291Z,33.60
2018-12-15T10:17:14.989Z,33.93
2018-12-15T10:25:30.707Z,37.73
2018-12-15T10:34:13.359Z,34.50
2018-12-15T10:38:25.368Z,33.03
2018-12-15T10:42:31.589Z,36.00
2018-12-15T10:46:36.878Z,25.77
2018-12-15T10:50:53.064Z,34.03
2018-12-15T10:54:58.853Z,25.23
2018-12-15T10:59:11.559Z,29.57
2018-12-15T11:03:17.865Z,31.93
2018-12-15T11:07:34.271Z,31.10
2018-12-15T11:11:39.857Z,31.77
2018-12-15T11:15:46.699Z,33.70
2018-12-15T11:19:52.087Z,35.03
2018-12-15T11:23:58.547Z,35.57
2018-12-15T11:28:10.492Z,40.87
2018-12-15T11:32:23.357Z,38.90
2018-12-15T11:36:28.980Z,41.57
2018-12-15T11:40:38.530Z,36.00
2018-12-15T11:44:46.090Z,34.10
2018-12-15T11:53:05.415Z,36.07
2018-12-15T11:57:16.734Z,34.13
2018-12-15T12:01:22.204Z,34.17
2018-12-15T12:05:27.674Z,40.73
2018-12-15T12:09:36.313Z,33.77
2018-12-15T12:13:42.407Z,35.80
2018-12-15T12:17:48.415Z,38.87
2018-12-15T12:21:59.855Z,33.47
2018-12-15T12:26:08.441Z,33.03
2018-12-15T12:30:21.858Z,35.90
2018-12-15T12:34:27.048Z,35.93
2018-12-15T12:38:35.600Z,36.83
2018-12-15T12:42:40.766Z,32.97
2018-12-15T12:46:46.423Z,36.73
2018-12-15T12:50:55.771Z,37.60
2018-12-15T12:55:01.578Z,35.40
2018-12-15T12:59:07.608Z,37.60
2018-12-15T13:03:17.436Z,37.20
2018-12-15T13:07:23.483Z,38.70
2018-12-15T13:11:28.631Z,44.13
2018-12-15T13:15:40.706Z,39.33
2018-12-15T13:19:46.831Z,39.67
2018-12-15T13:24:00.754Z,35.53
2018-12-15T13:28:07.962Z,42.03
2018-12-15T13:32:13.048Z,43.97
2018-12-15T13:36:23.058Z,38.77
2018-12-15T13:40:29.291Z,43.10
2018-12-15T13:44:44.312Z,35.00
2018-12-15T13:48:49.683Z,34.90
2018-12-15T13:52:55.035Z,41.13
2018-12-15T13:57:03.626Z,40.03
2018-12-15T14:01:09.997Z,38.87
2018-12-15T14:09:24.608Z,28.50
2018-12-15T14:13:30.396Z,39.77
2018-12-15T14:17:36.403Z,32.57
2018-12-15T14:21:42.937Z,36.87
2018-12-15T14:25:51.745Z,37.03
2018-12-15T14:29:58.708Z,40.73
2018-12-15T14:34:04.052Z,37.70
2018-12-15T14:38:18.074Z,39.33
2018-12-15T14:42:24.988Z,39.73
2018-12-15T14:46:39.909Z,34.27
2018-12-15T14:54:54.696Z,41.97
2018-12-15T14:58:59.794Z,41.37
2018-12-15T15:03:09.792Z,39.77
2018-12-15T15:07:16.432Z,42.60
2018-12-15T15:15:37.539Z,30.13
2018-12-15T15:19:44.191Z,45.90
2018-12-15T15:23:49.270Z,37.60
2018-12-15T15:27:58.193Z,52.17
2018-12-15T15:32:03.245Z,44.13
2018-12-15T15:36:09.835Z,34.73
2018-12-15T15:40:23.600Z,45.87
2018-12-15T15:44:29.344Z,42.83
2018-12-15T15:48:44.130Z,40.97
2018-12-15T15:52:50.552Z,46.43
2018-12-15T15:56:56.731Z,46.33
2018-12-15T16:01:02.371Z,45.60
2018-12-15T16:09:23.716Z,39.20
2018-12-15T16:13:29.196Z,39.73
2018-12-15T16:17:42.447Z,49.40
2018-12-15T16:21:47.644Z,26.40
2018-12-15T16:25:59.094Z,42.10
2018-12-15T16:30:06.547Z,48.27
2018-12-15T16:34:19.071Z,42.90
2018-12-15T16:38:25.440Z,43.80
2018-12-15T16:42:39.628Z,46.93
2018-12-15T16:46:45.229Z,39.80
2018-12-15T16:55:00.154Z,49.97
2018-12-15T16:59:05.820Z,53.10
2018-12-15T17:03:19.366Z,53.40
2018-12-15T17:07:27.357Z,58.73
2018-12-15T17:11:36.216Z,52.73
2018-12-15T17:15:45.130Z,56.13
2018-12-15T17:19:54.855Z,53.87
2018-12-15T17:23:59.817Z,53.23
2018-12-15T17:28:07.286Z,51.83
2018-12-15T17:32:16.308Z,55.43
2018-12-15T17:36:24.295Z,52.23
2018-12-15T17:40:29.855Z,54.67
2018-12-15T17:44:38.920Z,58.70
2018-12-15T17:48:45.023Z,56.50
2018-12-15T17:52:55.094Z,59.83
2018-12-15T17:57:00.070Z,58.50
2018-12-15T18:01:06.084Z,58.13
2018-12-15T18:05:19.468Z,62.20
2018-12-15T18:09:28.190Z,56.10
2018-12-15T18:13:36.541Z,51.67
2018-12-15T18:17:42.023Z,50.93
2018-12-15T18:21:46.973Z,63.13
2018-12-15T18:26:00.194Z,59.50
2018-12-15T18:30:07.937Z,52.57
2018-12-15T18:34:14.018Z,56.63
2018-12-15T18:38:26.866Z,55.37
2018-12-15T18:42:41.282Z,60.87
2018-12-15T18:46:46.372Z,53.47
2018-12-15T18:50:52.613Z,56.27
2018-12-15T18:55:01.691Z,51.40
2018-12-15T18:59:09.648Z,50.60
2018-12-15T19:03:15.856Z,42.57
2018-12-15T19:07:28.411Z,53.30
2018-12-15T19:15:46.242Z,53.17
2018-12-15T19:19:52.694Z,57.00
2018-12-15T19:24:01.574Z,62.43
2018-12-15T19:28:08.210Z,54.40
2018-12-15T19:32:15.385Z,48.77
2018-12-15T19:36:28.364Z,52.40
2018-12-15T19:40:35.384Z,43.27
2018-12-15T19:44:43.260Z,60.63
2018-12-15T19:48:49.663Z,52.17
2018-12-15T19:52:55.661Z,62.07
2018-12-15T19:57:03.760Z,56.80
2018-12-15T20:01:08.860Z,54.37
2018-12-15T20:05:15.432Z,55.43
2018-12-15T20:09:22.552Z,57.57
2018-12-15T20:13:28.100Z,57.13
2018-12-15T20:17:33.672Z,51.47
2018-12-15T20:21:43.829Z,52.80
2018-12-15T20:25:49.565Z,49.23
2018-12-15T20:34:09.482Z,58.03
2018-12-15T20:42:25.983Z,50.70
2018-12-15T20:46:31.153Z,45.27
2018-12-15T20:50:36.916Z,48.57
2018-12-15T20:54:45.511Z,40.57
2018-12-15T20:58:51.663Z,39.43
2018-12-15T21:02:57.633Z,37.03
2018-12-15T21:07:05.749Z,45.97
2018-12-15T21:11:13.357Z,37.50
2018-12-15T21:15:25.711Z,31.73
2018-12-15T21:19:31.938Z,35.80
2018-12-15T21:23:38.440Z,35.30
2018-12-15T21:27:48.480Z,39.37
2018-12-15T21:31:56.676Z,30.63
2018-12-15T21:36:10.211Z,30.57
2018-12-15T21:40:15.522Z,27.60
2018-12-15T21:48:33.961Z,28.53
2018-12-15T21:52:40.357Z,39.03
2018-12-15T21:56:46.530Z,26.23
2018-12-15T22:00:53.312Z,32.63
2018-12-15T22:04:58.241Z,34.13
2018-12-15T22:09:07.303Z,45.07
2018-12-15T22:13:14.165Z,41.13
2018-12-15T22:25:55.232Z,33.37
2018-12-15T22:34:14.647Z,36.53
2018-12-15T22:38:20.037Z,32.37
2018-12-15T22:42:26.114Z,39.70
2018-12-15T22:46:31.148Z,30.23
2018-12-15T22:50:40.044Z,31.10
2018-12-15T22:54:45.559Z,32.90
2018-12-15T22:58:51.051Z,32.73
2018-12-15T23:02:56.073Z,28.53
2018-12-15T23:07:02.284Z,29.27
2018-12-15T23:11:08.003Z,27.13
2018-12-15T23:15:17.867Z,30.97
2018-12-15T23:19:24.724Z,31.10
2018-12-15T23:27:40.571Z,34.60
2018-12-15T23:31:45.950Z,38.47
2018-12-15T23:40:00.804Z,35.17
2018-12-15T23:44:06.834Z,32.60
2018-12-15T23:48:20.299Z,24.77
2018-12-15T23:52:25.731Z,37.10
